sensor_id;sensor_type;location;lat;lon;timestamp;P1;durP1;ratioP1;P2;durP2;ratioP2
24619;SDS011;12763;55.802;37.404;2023-05-07T00:00:50;9.70;;;4.45;;
24619;SDS011;12763;55.802;37.404;2023-05-07T00:03:19;9.85;;;4.50;;
24619;SDS011;12763;55.802;37.404;2023-05-07T00:05:46;14.63;;;4.93;;
24619;SDS011;12763;55.802;37.404;2023-05-07T00:08:12;14.63;;;5.43;;
24619;SDS011;12763;55.802;37.404;2023-05-07T00:10:42;12.10;;;4.80;;
24619;SDS011;12763;55.802;37.404;2023-05-07T00:13:08;9.20;;;4.72;;
24619;SDS011;12763;55.802;37.404;2023-05-07T00:15:34;7.53;;;4.10;;
24619;SDS011;12763;55.802;37.404;2023-05-07T00:18:01;9.25;;;4.40;;
24619;SDS011;12763;55.802;37.404;2023-05-07T00:20:27;10.68;;;4.47;;
24619;SDS011;12763;55.802;37.404;2023-05-07T00:22:54;11.55;;;4.20;;
24619;SDS011;12763;55.802;37.404;2023-05-07T00:25:23;10.10;;;4.65;;
24619;SDS011;12763;55.802;37.404;2023-05-07T00:27:50;8.27;;;4.22;;
24619;SDS011;12763;55.802;37.404;2023-05-07T00:30:17;5.82;;;3.55;;
24619;SDS011;12763;55.802;37.404;2023-05-07T00:32:46;11.98;;;4.53;;
24619;SDS011;12763;55.802;37.404;2023-05-07T00:35:14;9.63;;;4.13;;
24619;SDS011;12763;55.802;37.404;2023-05-07T00:37:41;7.78;;;3.88;;
24619;SDS011;12763;55.802;37.404;2023-05-07T00:40:08;9.00;;;4.35;;
24619;SDS011;12763;55.802;37.404;2023-05-07T00:42:38;6.85;;;4.28;;
24619;SDS011;12763;55.802;37.404;2023-05-07T00:45:04;6.82;;;3.90;;
24619;SDS011;12763;55.802;37.404;2023-05-07T00:47:33;9.57;;;5.50;;
24619;SDS011;12763;55.802;37.404;2023-05-07T00:49:59;10.23;;;4.88;;
24619;SDS011;12763;55.802;37.404;2023-05-07T00:52:25;7.78;;;4.55;;
24619;SDS011;12763;55.802;37.404;2023-05-07T00:54:52;8.25;;;4.25;;
24619;SDS011;12763;55.802;37.404;2023-05-07T00:57:23;14.15;;;4.65;;
24619;SDS011;12763;55.802;37.404;2023-05-07T00:59:51;8.48;;;3.97;;
24619;SDS011;12763;55.802;37.404;2023-05-07T01:02:18;9.23;;;4.57;;
24619;SDS011;12763;55.802;37.404;2023-05-07T01:04:45;8.85;;;4.43;;
24619;SDS011;12763;55.802;37.404;2023-05-07T01:07:11;11.00;;;4.10;;
24619;SDS011;12763;55.802;37.404;2023-05-07T01:09:38;9.32;;;5.20;;
24619;SDS011;12763;55.802;37.404;2023-05-07T01:12:06;9.25;;;4.70;;
24619;SDS011;12763;55.802;37.404;2023-05-07T01:14:33;10.18;;;4.90;;
24619;SDS011;12763;55.802;37.404;2023-05-07T01:17:00;8.98;;;4.57;;
24619;SDS011;12763;55.802;37.404;2023-05-07T01:19:28;10.48;;;5.32;;
24619;SDS011;12763;55.802;37.404;2023-05-07T01:21:58;11.43;;;4.90;;
24619;SDS011;12763;55.802;37.404;2023-05-07T01:24:31;8.95;;;4.63;;
24619;SDS011;12763;55.802;37.404;2023-05-07T01:27:01;9.88;;;4.80;;
24619;SDS011;12763;55.802;37.404;2023-05-07T01:29:30;10.82;;;4.68;;
24619;SDS011;12763;55.802;37.404;2023-05-07T01:32:00;11.85;;;5.60;;
24619;SDS011;12763;55.802;37.404;2023-05-07T01:34:30;10.38;;;4.65;;
24619;SDS011;12763;55.802;37.404;2023-05-07T01:36:59;11.55;;;4.80;;
24619;SDS011;12763;55.802;37.404;2023-05-07T01:39:27;16.00;;;4.90;;
24619;SDS011;12763;55.802;37.404;2023-05-07T01:41:55;11.25;;;5.05;;
24619;SDS011;12763;55.802;37.404;2023-05-07T01:44:27;8.02;;;4.32;;
24619;SDS011;12763;55.802;37.404;2023-05-07T01:46:54;15.20;;;5.22;;
24619;SDS011;12763;55.802;37.404;2023-05-07T01:49:20;9.90;;;5.00;;
24619;SDS011;12763;55.802;37.404;2023-05-07T01:51:53;8.90;;;4.68;;
24619;SDS011;12763;55.802;37.404;2023-05-07T01:54:20;9.68;;;5.22;;
24619;SDS011;12763;55.802;37.404;2023-05-07T01:56:56;11.00;;;5.18;;
24619;SDS011;12763;55.802;37.404;2023-05-07T01:59:22;8.77;;;4.75;;
24619;SDS011;12763;55.802;37.404;2023-05-07T02:01:49;14.82;;;5.47;;
24619;SDS011;12763;55.802;37.404;2023-05-07T02:04:15;9.20;;;4.90;;
24619;SDS011;12763;55.802;37.404;2023-05-07T02:06:42;15.10;;;5.55;;
24619;SDS011;12763;55.802;37.404;2023-05-07T02:09:10;7.00;;;3.78;;
24619;SDS011;12763;55.802;37.404;2023-05-07T02:11:40;9.40;;;4.40;;
24619;SDS011;12763;55.802;37.404;2023-05-07T02:14:07;17.23;;;4.30;;
24619;SDS011;12763;55.802;37.404;2023-05-07T02:16:33;6.65;;;3.60;;
24619;SDS011;12763;55.802;37.404;2023-05-07T02:19:00;7.38;;;3.97;;
24619;SDS011;12763;55.802;37.404;2023-05-07T02:21:27;13.38;;;4.70;;
24619;SDS011;12763;55.802;37.404;2023-05-07T02:23:54;9.30;;;4.53;;
24619;SDS011;12763;55.802;37.404;2023-05-07T02:26:20;18.05;;;4.97;;
24619;SDS011;12763;55.802;37.404;2023-05-07T02:28:47;7.85;;;4.38;;
24619;SDS011;12763;55.802;37.404;2023-05-07T02:31:14;11.57;;;4.43;;
24619;SDS011;12763;55.802;37.404;2023-05-07T02:33:40;7.63;;;4.20;;
24619;SDS011;12763;55.802;37.404;2023-05-07T02:36:09;10.55;;;5.20;;
24619;SDS011;12763;55.802;37.404;2023-05-07T02:38:42;12.57;;;5.17;;
24619;SDS011;12763;55.802;37.404;2023-05-07T02:41:09;13.95;;;4.95;;
24619;SDS011;12763;55.802;37.404;2023-05-07T02:43:36;6.40;;;3.65;;
24619;SDS011;12763;55.802;37.404;2023-05-07T02:46:07;7.45;;;3.78;;
24619;SDS011;12763;55.802;37.404;2023-05-07T02:48:38;8.60;;;3.83;;
24619;SDS011;12763;55.802;37.404;2023-05-07T02:51:04;7.82;;;4.20;;
24619;SDS011;12763;55.802;37.404;2023-05-07T02:53:32;8.60;;;4.53;;
24619;SDS011;12763;55.802;37.404;2023-05-07T02:56:01;7.78;;;3.78;;
24619;SDS011;12763;55.802;37.404;2023-05-07T02:58:28;8.13;;;4.50;;
24619;SDS011;12763;55.802;37.404;2023-05-07T03:00:55;11.07;;;5.47;;
24619;SDS011;12763;55.802;37.404;2023-05-07T03:03:30;8.02;;;3.60;;
24619;SDS011;12763;55.802;37.404;2023-05-07T03:05:57;7.70;;;4.05;;
24619;SDS011;12763;55.802;37.404;2023-05-07T03:08:24;5.53;;;3.40;;
24619;SDS011;12763;55.802;37.404;2023-05-07T03:10:50;9.77;;;3.50;;
24619;SDS011;12763;55.802;37.404;2023-05-07T03:13:17;8.02;;;3.22;;
24619;SDS011;12763;55.802;37.404;2023-05-07T03:15:44;5.82;;;3.20;;
24619;SDS011;12763;55.802;37.404;2023-05-07T03:18:11;6.35;;;3.25;;
24619;SDS011;12763;55.802;37.404;2023-05-07T03:20:37;10.38;;;3.58;;
24619;SDS011;12763;55.802;37.404;2023-05-07T03:23:07;5.38;;;3.30;;
24619;SDS011;12763;55.802;37.404;2023-05-07T03:25:34;5.47;;;3.20;;
24619;SDS011;12763;55.802;37.404;2023-05-07T03:28:01;5.05;;;3.08;;
24619;SDS011;12763;55.802;37.404;2023-05-07T03:30:36;9.48;;;3.38;;
24619;SDS011;12763;55.802;37.404;2023-05-07T03:33:03;5.47;;;3.25;;
24619;SDS011;12763;55.802;37.404;2023-05-07T03:35:35;5.60;;;3.20;;
24619;SDS011;12763;55.802;37.404;2023-05-07T03:38:05;8.60;;;2.97;;
24619;SDS011;12763;55.802;37.404;2023-05-07T03:40:34;7.90;;;3.17;;
24619;SDS011;12763;55.802;37.404;2023-05-07T03:43:01;8.80;;;3.92;;
24619;SDS011;12763;55.802;37.404;2023-05-07T03:45:30;6.65;;;3.85;;
24619;SDS011;12763;55.802;37.404;2023-05-07T03:48:08;5.53;;;3.20;;
24619;SDS011;12763;55.802;37.404;2023-05-07T03:50:35;6.00;;;3.45;;
24619;SDS011;12763;55.802;37.404;2023-05-07T03:53:04;6.25;;;2.97;;
24619;SDS011;12763;55.802;37.404;2023-05-07T03:55:38;5.80;;;3.55;;
24619;SDS011;12763;55.802;37.404;2023-05-07T03:58:04;5.15;;;2.85;;
24619;SDS011;12763;55.802;37.404;2023-05-07T04:00:31;6.68;;;3.70;;
24619;SDS011;12763;55.802;37.404;2023-05-07T04:03:06;6.53;;;3.35;;
24619;SDS011;12763;55.802;37.404;2023-05-07T04:05:33;5.72;;;3.30;;
24619;SDS011;12763;55.802;37.404;2023-05-07T04:08:03;5.15;;;3.10;;
24619;SDS011;12763;55.802;37.404;2023-05-07T04:10:39;9.55;;;3.33;;
24619;SDS011;12763;55.802;37.404;2023-05-07T04:13:09;6.50;;;2.85;;
24619;SDS011;12763;55.802;37.404;2023-05-07T04:15:36;8.07;;;3.30;;
24619;SDS011;12763;55.802;37.404;2023-05-07T04:18:05;9.65;;;3.25;;
24619;SDS011;12763;55.802;37.404;2023-05-07T04:20:33;5.40;;;2.97;;
24619;SDS011;12763;55.802;37.404;2023-05-07T04:23:06;3.10;;;2.42;;
24619;SDS011;12763;55.802;37.404;2023-05-07T04:25:36;6.32;;;2.72;;
24619;SDS011;12763;55.802;37.404;2023-05-07T04:28:11;6.18;;;2.95;;
24619;SDS011;12763;55.802;37.404;2023-05-07T04:30:41;5.40;;;2.90;;
24619;SDS011;12763;55.802;37.404;2023-05-07T04:33:08;6.00;;;2.72;;
24619;SDS011;12763;55.802;37.404;2023-05-07T04:35:35;6.05;;;2.92;;
24619;SDS011;12763;55.802;37.404;2023-05-07T04:38:06;4.95;;;2.90;;
24619;SDS011;12763;55.802;37.404;2023-05-07T04:40:33;4.18;;;2.63;;
24619;SDS011;12763;55.802;37.404;2023-05-07T04:43:02;5.50;;;2.60;;
24619;SDS011;12763;55.802;37.404;2023-05-07T04:45:32;4.90;;;2.75;;
24619;SDS011;12763;55.802;37.404;2023-05-07T04:47:59;8.48;;;2.88;;
24619;SDS011;12763;55.802;37.404;2023-05-07T04:50:27;5.63;;;2.65;;
24619;SDS011;12763;55.802;37.404;2023-05-07T04:52:58;7.07;;;2.75;;
24619;SDS011;12763;55.802;37.404;2023-05-07T04:55:25;5.35;;;2.83;;
24619;SDS011;12763;55.802;37.404;2023-05-07T04:57:56;3.75;;;2.42;;
24619;SDS011;12763;55.802;37.404;2023-05-07T05:00:24;5.25;;;2.40;;
24619;SDS011;12763;55.802;37.404;2023-05-07T05:02:52;7.43;;;2.92;;
24619;SDS011;12763;55.802;37.404;2023-05-07T05:05:23;8.25;;;2.50;;
24619;SDS011;12763;55.802;37.404;2023-05-07T05:07:52;3.83;;;1.92;;
24619;SDS011;12763;55.802;37.404;2023-05-07T05:10:19;3.13;;;2.20;;
24619;SDS011;12763;55.802;37.404;2023-05-07T05:12:46;6.95;;;2.60;;
24619;SDS011;12763;55.802;37.404;2023-05-07T05:15:18;18.15;;;3.10;;
24619;SDS011;12763;55.802;37.404;2023-05-07T05:17:51;3.42;;;2.00;;
24619;SDS011;12763;55.802;37.404;2023-05-07T05:20:17;2.75;;;1.85;;
24619;SDS011;12763;55.802;37.404;2023-05-07T05:22:51;2.83;;;2.10;;
24619;SDS011;12763;55.802;37.404;2023-05-07T05:25:18;4.03;;;2.00;;
24619;SDS011;12763;55.802;37.404;2023-05-07T05:27:46;5.28;;;2.28;;
24619;SDS011;12763;55.802;37.404;2023-05-07T05:30:13;6.35;;;2.00;;
24619;SDS011;12763;55.802;37.404;2023-05-07T05:32:45;6.03;;;2.08;;
24619;SDS011;12763;55.802;37.404;2023-05-07T05:35:12;2.90;;;2.13;;
24619;SDS011;12763;55.802;37.404;2023-05-07T05:37:43;7.82;;;2.15;;
24619;SDS011;12763;55.802;37.404;2023-05-07T05:40:12;5.03;;;2.03;;
24619;SDS011;12763;55.802;37.404;2023-05-07T05:42:41;4.72;;;2.28;;
24619;SDS011;12763;55.802;37.404;2023-05-07T05:45:09;4.60;;;2.30;;
24619;SDS011;12763;55.802;37.404;2023-05-07T05:47:40;3.38;;;1.98;;
24619;SDS011;12763;55.802;37.404;2023-05-07T05:50:07;3.38;;;1.83;;
24619;SDS011;12763;55.802;37.404;2023-05-07T05:52:35;3.35;;;2.08;;
24619;SDS011;12763;55.802;37.404;2023-05-07T05:55:02;4.80;;;2.40;;
24619;SDS011;12763;55.802;37.404;2023-05-07T05:57:31;4.28;;;2.65;;
24619;SDS011;12763;55.802;37.404;2023-05-07T05:59:58;4.70;;;2.20;;
24619;SDS011;12763;55.802;37.404;2023-05-07T06:02:33;2.42;;;1.75;;
24619;SDS011;12763;55.802;37.404;2023-05-07T06:05:00;3.58;;;2.33;;
24619;SDS011;12763;55.802;37.404;2023-05-07T06:07:28;3.78;;;2.28;;
24619;SDS011;12763;55.802;37.404;2023-05-07T06:09:58;6.38;;;2.30;;
24619;SDS011;12763;55.802;37.404;2023-05-07T06:12:25;3.10;;;2.10;;
24619;SDS011;12763;55.802;37.404;2023-05-07T06:14:51;3.72;;;2.33;;
24619;SDS011;12763;55.802;37.404;2023-05-07T06:17:21;3.25;;;2.30;;
24619;SDS011;12763;55.802;37.404;2023-05-07T06:19:51;1.95;;;1.65;;
24619;SDS011;12763;55.802;37.404;2023-05-07T06:22:19;3.25;;;1.70;;
24619;SDS011;12763;55.802;37.404;2023-05-07T06:24:49;2.60;;;2.05;;
24619;SDS011;12763;55.802;37.404;2023-05-07T06:27:15;2.92;;;1.95;;
24619;SDS011;12763;55.802;37.404;2023-05-07T06:29:52;6.00;;;1.90;;
24619;SDS011;12763;55.802;37.404;2023-05-07T06:32:24;3.25;;;1.85;;
24619;SDS011;12763;55.802;37.404;2023-05-07T06:34:55;3.10;;;1.80;;
24619;SDS011;12763;55.802;37.404;2023-05-07T06:37:22;3.50;;;2.00;;
24619;SDS011;12763;55.802;37.404;2023-05-07T06:39:53;4.60;;;2.22;;
24619;SDS011;12763;55.802;37.404;2023-05-07T06:42:19;3.60;;;2.13;;
24619;SDS011;12763;55.802;37.404;2023-05-07T06:44:50;2.47;;;1.92;;
24619;SDS011;12763;55.802;37.404;2023-05-07T06:47:18;5.55;;;2.17;;
24619;SDS011;12763;55.802;37.404;2023-05-07T06:49:54;3.42;;;1.88;;
24619;SDS011;12763;55.802;37.404;2023-05-07T06:52:30;1.98;;;1.67;;
24619;SDS011;12763;55.802;37.404;2023-05-07T06:54:56;2.20;;;1.42;;
24619;SDS011;12763;55.802;37.404;2023-05-07T06:57:24;2.75;;;1.75;;
24619;SDS011;12763;55.802;37.404;2023-05-07T06:59:51;2.55;;;1.73;;
24619;SDS011;12763;55.802;37.404;2023-05-07T07:02:17;5.82;;;2.40;;
24619;SDS011;12763;55.802;37.404;2023-05-07T07:04:48;2.70;;;1.63;;
24619;SDS011;12763;55.802;37.404;2023-05-07T07:07:14;2.25;;;1.73;;
24619;SDS011;12763;55.802;37.404;2023-05-07T07:09:44;2.78;;;1.58;;
24619;SDS011;12763;55.802;37.404;2023-05-07T07:12:13;4.53;;;2.00;;
24619;SDS011;12763;55.802;37.404;2023-05-07T07:14:40;3.42;;;2.20;;
24619;SDS011;12763;55.802;37.404;2023-05-07T07:17:06;3.53;;;1.80;;
24619;SDS011;12763;55.802;37.404;2023-05-07T07:19:33;2.15;;;1.52;;
24619;SDS011;12763;55.802;37.404;2023-05-07T07:22:02;2.03;;;1.63;;
24619;SDS011;12763;55.802;37.404;2023-05-07T07:24:28;4.30;;;1.70;;
24619;SDS011;12763;55.802;37.404;2023-05-07T07:26:58;1.48;;;1.13;;
24619;SDS011;12763;55.802;37.404;2023-05-07T07:29:26;4.32;;;1.55;;
24619;SDS011;12763;55.802;37.404;2023-05-07T07:31:53;2.25;;;1.50;;
24619;SDS011;12763;55.802;37.404;2023-05-07T07:34:20;3.30;;;1.60;;
24619;SDS011;12763;55.802;37.404;2023-05-07T07:36:47;4.95;;;1.48;;
24619;SDS011;12763;55.802;37.404;2023-05-07T07:39:17;4.00;;;1.48;;
24619;SDS011;12763;55.802;37.404;2023-05-07T07:41:45;3.30;;;1.70;;
24619;SDS011;12763;55.802;37.404;2023-05-07T07:44:12;4.00;;;1.58;;
24619;SDS011;12763;55.802;37.404;2023-05-07T07:46:40;3.53;;;1.50;;
24619;SDS011;12763;55.802;37.404;2023-05-07T07:49:06;1.83;;;1.60;;
24619;SDS011;12763;55.802;37.404;2023-05-07T07:51:33;1.55;;;1.45;;
24619;SDS011;12763;55.802;37.404;2023-05-07T07:54:00;2.70;;;1.92;;
24619;SDS011;12763;55.802;37.404;2023-05-07T07:56:29;2.05;;;1.45;;
24619;SDS011;12763;55.802;37.404;2023-05-07T07:58:57;5.22;;;1.52;;
24619;SDS011;12763;55.802;37.404;2023-05-07T08:01:23;2.40;;;1.50;;
24619;SDS011;12763;55.802;37.404;2023-05-07T08:03:50;5.65;;;1.73;;
24619;SDS011;12763;55.802;37.404;2023-05-07T08:06:17;2.35;;;1.52;;
24619;SDS011;12763;55.802;37.404;2023-05-07T08:08:43;2.05;;;1.30;;
24619;SDS011;12763;55.802;37.404;2023-05-07T08:11:10;2.83;;;1.50;;
24619;SDS011;12763;55.802;37.404;2023-05-07T08:13:36;3.17;;;1.50;;
24619;SDS011;12763;55.802;37.404;2023-05-07T08:16:04;2.38;;;1.50;;
24619;SDS011;12763;55.802;37.404;2023-05-07T08:18:32;2.85;;;1.50;;
24619;SDS011;12763;55.802;37.404;2023-05-07T08:21:00;4.63;;;1.65;;
24619;SDS011;12763;55.802;37.404;2023-05-07T08:23:27;1.50;;;1.40;;
24619;SDS011;12763;55.802;37.404;2023-05-07T08:25:54;3.92;;;1.35;;
24619;SDS011;12763;55.802;37.404;2023-05-07T08:28:20;4.22;;;1.88;;
24619;SDS011;12763;55.802;37.404;2023-05-07T08:30:51;2.78;;;1.50;;
24619;SDS011;12763;55.802;37.404;2023-05-07T08:33:18;3.45;;;1.60;;
24619;SDS011;12763;55.802;37.404;2023-05-07T08:35:44;2.08;;;1.75;;
24619;SDS011;12763;55.802;37.404;2023-05-07T08:38:12;2.58;;;1.58;;
24619;SDS011;12763;55.802;37.404;2023-05-07T08:40:39;1.67;;;1.30;;
24619;SDS011;12763;55.802;37.404;2023-05-07T08:43:12;2.50;;;1.50;;
24619;SDS011;12763;55.802;37.404;2023-05-07T08:45:39;3.30;;;1.50;;
24619;SDS011;12763;55.802;37.404;2023-05-07T08:48:09;4.28;;;1.52;;
24619;SDS011;12763;55.802;37.404;2023-05-07T08:50:41;1.77;;;1.50;;
24619;SDS011;12763;55.802;37.404;2023-05-07T08:53:09;1.30;;;1.20;;
24619;SDS011;12763;55.802;37.404;2023-05-07T08:55:36;3.03;;;1.50;;
24619;SDS011;12763;55.802;37.404;2023-05-07T08:58:03;1.83;;;1.27;;
24619;SDS011;12763;55.802;37.404;2023-05-07T09:00:30;2.25;;;1.45;;
24619;SDS011;12763;55.802;37.404;2023-05-07T09:03:00;3.40;;;1.50;;
24619;SDS011;12763;55.802;37.404;2023-05-07T09:05:26;2.85;;;1.52;;
24619;SDS011;12763;55.802;37.404;2023-05-07T09:07:53;4.65;;;1.60;;
24619;SDS011;12763;55.802;37.404;2023-05-07T09:10:22;4.25;;;1.55;;
24619;SDS011;12763;55.802;37.404;2023-05-07T09:12:50;3.35;;;1.55;;
24619;SDS011;12763;55.802;37.404;2023-05-07T09:15:17;1.50;;;1.40;;
24619;SDS011;12763;55.802;37.404;2023-05-07T09:17:44;1.30;;;1.20;;
24619;SDS011;12763;55.802;37.404;2023-05-07T09:20:10;3.05;;;1.60;;
24619;SDS011;12763;55.802;37.404;2023-05-07T09:22:38;6.65;;;1.58;;
24619;SDS011;12763;55.802;37.404;2023-05-07T09:25:08;2.45;;;1.50;;
24619;SDS011;12763;55.802;37.404;2023-05-07T09:27:36;2.53;;;1.48;;
24619;SDS011;12763;55.802;37.404;2023-05-07T09:30:07;5.70;;;1.45;;
24619;SDS011;12763;55.802;37.404;2023-05-07T09:32:35;2.45;;;1.50;;
24619;SDS011;12763;55.802;37.404;2023-05-07T09:35:05;4.07;;;1.30;;
24619;SDS011;12763;55.802;37.404;2023-05-07T09:37:31;2.10;;;1.40;;
24619;SDS011;12763;55.802;37.404;2023-05-07T09:39:58;3.10;;;1.67;;
24619;SDS011;12763;55.802;37.404;2023-05-07T09:42:27;3.20;;;1.83;;
24619;SDS011;12763;55.802;37.404;2023-05-07T09:44:59;2.13;;;1.30;;
24619;SDS011;12763;55.802;37.404;2023-05-07T09:47:30;1.88;;;1.40;;
24619;SDS011;12763;55.802;37.404;2023-05-07T09:49:59;2.75;;;1.35;;
24619;SDS011;12763;55.802;37.404;2023-05-07T09:52:31;2.47;;;1.50;;
24619;SDS011;12763;55.802;37.404;2023-05-07T09:55:03;2.17;;;1.45;;
24619;SDS011;12763;55.802;37.404;2023-05-07T09:57:32;1.88;;;1.40;;
24619;SDS011;12763;55.802;37.404;2023-05-07T10:00:03;3.00;;;1.40;;
24619;SDS011;12763;55.802;37.404;2023-05-07T10:02:37;2.30;;;1.48;;
24619;SDS011;12763;55.802;37.404;2023-05-07T10:05:12;2.43;;;1.50;;
24619;SDS011;12763;55.802;37.404;2023-05-07T10:07:40;3.70;;;1.48;;
24619;SDS011;12763;55.802;37.404;2023-05-07T10:10:08;4.30;;;1.50;;
24619;SDS011;12763;55.802;37.404;2023-05-07T10:12:40;1.52;;;1.42;;
24619;SDS011;12763;55.802;37.404;2023-05-07T10:15:13;2.40;;;1.20;;
24619;SDS011;12763;55.802;37.404;2023-05-07T10:17:43;2.42;;;1.77;;
24619;SDS011;12763;55.802;37.404;2023-05-07T10:20:11;1.23;;;1.13;;
24619;SDS011;12763;55.802;37.404;2023-05-07T10:22:41;2.60;;;1.25;;
24619;SDS011;12763;55.802;37.404;2023-05-07T10:25:21;3.00;;;1.80;;
24619;SDS011;12763;55.802;37.404;2023-05-07T10:27:53;3.92;;;1.67;;
24619;SDS011;12763;55.802;37.404;2023-05-07T10:32:49;2.10;;;1.40;;
24619;SDS011;12763;55.802;37.404;2023-05-07T10:35:26;2.03;;;1.30;;
24619;SDS011;12763;55.802;37.404;2023-05-07T10:37:58;2.15;;;1.77;;
24619;SDS011;12763;55.802;37.404;2023-05-07T10:40:26;5.65;;;1.52;;
24619;SDS011;12763;55.802;37.404;2023-05-07T10:42:57;2.15;;;1.35;;
24619;SDS011;12763;55.802;37.404;2023-05-07T10:45:27;2.67;;;1.50;;
24619;SDS011;12763;55.802;37.404;2023-05-07T10:48:15;4.07;;;1.42;;
24619;SDS011;12763;55.802;37.404;2023-05-07T10:50:48;3.05;;;1.20;;
24619;SDS011;12763;55.802;37.404;2023-05-07T10:56:07;2.25;;;1.70;;
24619;SDS011;12763;55.802;37.404;2023-05-07T10:58:50;1.85;;;1.40;;
24619;SDS011;12763;55.802;37.404;2023-05-07T11:04:15;4.43;;;1.90;;
24619;SDS011;12763;55.802;37.404;2023-05-07T11:15:08;2.05;;;1.50;;
24619;SDS011;12763;55.802;37.404;2023-05-07T11:17:55;3.10;;;1.50;;
24619;SDS011;12763;55.802;37.404;2023-05-07T11:26:08;4.57;;;1.30;;
24619;SDS011;12763;55.802;37.404;2023-05-07T11:28:38;6.78;;;1.85;;
24619;SDS011;12763;55.802;37.404;2023-05-07T11:31:08;3.38;;;1.75;;
24619;SDS011;12763;55.802;37.404;2023-05-07T11:33:37;2.08;;;1.50;;
24619;SDS011;12763;55.802;37.404;2023-05-07T11:36:08;2.65;;;1.60;;
24619;SDS011;12763;55.802;37.404;2023-05-07T11:38:40;2.90;;;1.60;;
24619;SDS011;12763;55.802;37.404;2023-05-07T11:41:06;5.78;;;2.53;;
24619;SDS011;12763;55.802;37.404;2023-05-07T11:43:33;3.03;;;1.70;;
24619;SDS011;12763;55.802;37.404;2023-05-07T11:46:10;3.08;;;1.90;;
24619;SDS011;12763;55.802;37.404;2023-05-07T11:48:39;3.97;;;1.80;;
24619;SDS011;12763;55.802;37.404;2023-05-07T11:51:07;2.17;;;1.60;;
24619;SDS011;12763;55.802;37.404;2023-05-07T11:53:38;4.05;;;1.70;;
24619;SDS011;12763;55.802;37.404;2023-05-07T11:56:09;2.90;;;1.70;;
24619;SDS011;12763;55.802;37.404;2023-05-07T11:58:37;6.82;;;2.10;;
24619;SDS011;12763;55.802;37.404;2023-05-07T12:01:06;3.92;;;1.60;;
24619;SDS011;12763;55.802;37.404;2023-05-07T12:03:34;5.10;;;2.10;;
24619;SDS011;12763;55.802;37.404;2023-05-07T12:06:08;4.53;;;1.77;;
24619;SDS011;12763;55.802;37.404;2023-05-07T12:08:36;2.92;;;1.48;;
24619;SDS011;12763;55.802;37.404;2023-05-07T12:11:04;2.08;;;1.80;;
24619;SDS011;12763;55.802;37.404;2023-05-07T12:13:33;2.53;;;1.40;;
24619;SDS011;12763;55.802;37.404;2023-05-07T12:15:59;4.88;;;1.55;;
24619;SDS011;12763;55.802;37.404;2023-05-07T12:18:29;2.70;;;1.42;;
24619;SDS011;12763;55.802;37.404;2023-05-07T12:20:55;5.63;;;1.50;;
24619;SDS011;12763;55.802;37.404;2023-05-07T12:23:22;3.10;;;1.77;;
24619;SDS011;12763;55.802;37.404;2023-05-07T12:25:49;2.42;;;1.67;;
24619;SDS011;12763;55.802;37.404;2023-05-07T12:28:16;2.97;;;1.83;;
24619;SDS011;12763;55.802;37.404;2023-05-07T12:30:44;3.40;;;1.45;;
24619;SDS011;12763;55.802;37.404;2023-05-07T12:33:14;4.47;;;1.70;;
24619;SDS011;12763;55.802;37.404;2023-05-07T12:35:43;6.22;;;2.33;;
24619;SDS011;12763;55.802;37.404;2023-05-07T12:38:11;5.30;;;1.80;;
24619;SDS011;12763;55.802;37.404;2023-05-07T12:40:39;2.50;;;1.65;;
24619;SDS011;12763;55.802;37.404;2023-05-07T12:43:06;2.25;;;1.50;;
24619;SDS011;12763;55.802;37.404;2023-05-07T12:45:36;2.58;;;1.70;;
24619;SDS011;12763;55.802;37.404;2023-05-07T12:48:07;3.70;;;2.15;;
24619;SDS011;12763;55.802;37.404;2023-05-07T12:50:35;6.35;;;1.88;;
24619;SDS011;12763;55.802;37.404;2023-05-07T12:53:05;2.25;;;1.35;;
24619;SDS011;12763;55.802;37.404;2023-05-07T12:55:46;3.30;;;2.30;;
24619;SDS011;12763;55.802;37.404;2023-05-07T12:58:19;3.50;;;1.70;;
24619;SDS011;12763;55.802;37.404;2023-05-07T13:00:47;2.28;;;1.67;;
24619;SDS011;12763;55.802;37.404;2023-05-07T13:03:21;4.90;;;1.83;;
24619;SDS011;12763;55.802;37.404;2023-05-07T13:05:49;10.57;;;1.92;;
24619;SDS011;12763;55.802;37.404;2023-05-07T13:08:23;3.80;;;1.92;;
24619;SDS011;12763;55.802;37.404;2023-05-07T13:10:54;3.10;;;1.90;;
24619;SDS011;12763;55.802;37.404;2023-05-07T13:13:20;5.90;;;1.90;;
24619;SDS011;12763;55.802;37.404;2023-05-07T13:15:47;6.82;;;1.65;;
24619;SDS011;12763;55.802;37.404;2023-05-07T13:18:14;4.05;;;1.73;;
24619;SDS011;12763;55.802;37.404;2023-05-07T13:20:40;4.13;;;2.78;;
24619;SDS011;12763;55.802;37.404;2023-05-07T13:23:06;3.78;;;1.88;;
24619;SDS011;12763;55.802;37.404;2023-05-07T13:25:32;3.00;;;1.73;;
24619;SDS011;12763;55.802;37.404;2023-05-07T13:27:58;2.58;;;1.50;;
24619;SDS011;12763;55.802;37.404;2023-05-07T13:30:25;3.25;;;1.92;;
24619;SDS011;12763;55.802;37.404;2023-05-07T13:32:53;3.47;;;2.50;;
24619;SDS011;12763;55.802;37.404;2023-05-07T13:35:21;3.58;;;1.88;;
24619;SDS011;12763;55.802;37.404;2023-05-07T13:37:48;2.58;;;2.05;;
24619;SDS011;12763;55.802;37.404;2023-05-07T13:40:14;2.53;;;1.58;;
24619;SDS011;12763;55.802;37.404;2023-05-07T13:42:41;4.07;;;1.83;;
24619;SDS011;12763;55.802;37.404;2023-05-07T13:45:07;3.17;;;1.80;;
24619;SDS011;12763;55.802;37.404;2023-05-07T13:47:34;2.50;;;1.90;;
24619;SDS011;12763;55.802;37.404;2023-05-07T13:50:00;2.67;;;1.70;;
24619;SDS011;12763;55.802;37.404;2023-05-07T13:52:28;6.75;;;2.90;;
24619;SDS011;12763;55.802;37.404;2023-05-07T13:54:54;3.47;;;2.00;;
24619;SDS011;12763;55.802;37.404;2023-05-07T13:57:20;3.85;;;2.10;;
24619;SDS011;12763;55.802;37.404;2023-05-07T13:59:46;7.35;;;2.05;;
24619;SDS011;12763;55.802;37.404;2023-05-07T14:02:12;4.22;;;1.88;;
24619;SDS011;12763;55.802;37.404;2023-05-07T14:04:39;3.05;;;1.75;;
24619;SDS011;12763;55.802;37.404;2023-05-07T14:07:05;7.82;;;2.05;;
24619;SDS011;12763;55.802;37.404;2023-05-07T14:09:31;3.78;;;2.15;;
24619;SDS011;12763;55.802;37.404;2023-05-07T14:11:58;6.72;;;2.28;;
24619;SDS011;12763;55.802;37.404;2023-05-07T14:14:24;2.55;;;1.80;;
24619;SDS011;12763;55.802;37.404;2023-05-07T14:16:50;2.50;;;1.95;;
24619;SDS011;12763;55.802;37.404;2023-05-07T14:19:17;6.35;;;1.98;;
24619;SDS011;12763;55.802;37.404;2023-05-07T14:21:43;3.28;;;1.80;;
24619;SDS011;12763;55.802;37.404;2023-05-07T14:24:09;5.32;;;2.47;;
24619;SDS011;12763;55.802;37.404;2023-05-07T14:26:36;3.10;;;2.50;;
24619;SDS011;12763;55.802;37.404;2023-05-07T14:29:02;3.65;;;1.90;;
24619;SDS011;12763;55.802;37.404;2023-05-07T14:31:29;3.88;;;1.90;;
24619;SDS011;12763;55.802;37.404;2023-05-07T14:33:55;1.90;;;1.67;;
24619;SDS011;12763;55.802;37.404;2023-05-07T14:36:23;2.05;;;1.67;;
24619;SDS011;12763;55.802;37.404;2023-05-07T14:38:54;3.25;;;1.88;;
24619;SDS011;12763;55.802;37.404;2023-05-07T14:41:28;3.15;;;2.05;;
24619;SDS011;12763;55.802;37.404;2023-05-07T14:43:55;3.47;;;1.92;;
24619;SDS011;12763;55.802;37.404;2023-05-07T14:46:21;4.65;;;1.88;;
24619;SDS011;12763;55.802;37.404;2023-05-07T14:48:49;3.00;;;1.67;;
24619;SDS011;12763;55.802;37.404;2023-05-07T14:51:16;2.92;;;1.83;;
24619;SDS011;12763;55.802;37.404;2023-05-07T14:53:45;5.07;;;2.30;;
24619;SDS011;12763;55.802;37.404;2023-05-07T14:56:11;4.07;;;1.95;;
24619;SDS011;12763;55.802;37.404;2023-05-07T14:58:38;5.80;;;1.75;;
24619;SDS011;12763;55.802;37.404;2023-05-07T15:01:05;3.38;;;2.05;;
24619;SDS011;12763;55.802;37.404;2023-05-07T15:03:31;3.22;;;1.70;;